createdAt,value
2018-05-14T00:00:02.128Z,14.1
2018-05-14T00:05:02.182Z,14.1
2018-05-14T00:10:02.035Z,14
2018-05-14T00:15:01.396Z,14
2018-05-14T00:20:01.403Z,13.9
2018-05-14T00:25:01.972Z,13.9
2018-05-14T00:30:01.504Z,13.8
2018-05-14T00:35:02.658Z,13.7
2018-05-14T00:40:01.726Z,13.7
2018-05-14T00:45:01.754Z,13.7
2018-05-14T00:50:01.890Z,13.6
2018-05-14T00:55:02.068Z,13.6
2018-05-14T01:00:01.857Z,13.5
2018-05-14T01:05:01.525Z,13.5
2018-05-14T01:10:01.464Z,13.5
2018-05-14T01:15:01.663Z,13.5
2018-05-14T01:20:01.861Z,13.4
2018-05-14T01:25:02.051Z,13.3
2018-05-14T01:30:02.305Z,13.3
2018-05-14T01:35:01.744Z,13.2
2018-05-14T01:40:01.690Z,13.2
2018-05-14T01:45:01.293Z,13.2
2018-05-14T01:50:01.685Z,13.2
2018-05-14T01:55:01.258Z,13.2
2018-05-14T02:00:01.226Z,13.1
2018-05-14T02:05:02.299Z,13
2018-05-14T02:10:01.466Z,13
2018-05-14T02:15:01.440Z,12.9
2018-05-14T02:20:01.636Z,12.8
2018-05-14T02:25:01.828Z,12.7
2018-05-14T02:30:02.067Z,12.7
2018-05-14T02:35:01.621Z,12.7
2018-05-14T02:40:01.697Z,12.7
2018-05-14T02:45:01.887Z,12.7
2018-05-14T02:50:01.326Z,12.6
2018-05-14T02:55:02.239Z,12.6
2018-05-14T03:00:01.749Z,12.6
2018-05-14T03:05:02.101Z,12.6
2018-05-14T03:10:02.049Z,12.6
2018-05-14T03:15:02.265Z,12.6
2018-05-14T03:20:01.961Z,12.6
2018-05-14T03:25:01.505Z,12.6
2018-05-14T03:30:01.735Z,12.6
2018-05-14T03:35:01.592Z,12.6
2018-05-14T03:40:01.689Z,12.6
2018-05-14T03:45:01.936Z,12.6
2018-05-14T03:50:02.536Z,12.7
2018-05-14T03:55:01.525Z,12.7
2018-05-14T04:00:02.001Z,12.7
2018-05-14T04:05:01.294Z,12.7
2018-05-14T04:10:01.867Z,12.7
2018-05-14T04:15:02.172Z,12.8
2018-05-14T04:20:02.117Z,12.8
2018-05-14T04:25:02.392Z,12.9
2018-05-14T04:30:01.550Z,13.2
2018-05-14T04:35:02.102Z,13.7
2018-05-14T04:40:01.190Z,14.7
2018-05-14T04:45:02.145Z,16
2018-05-14T04:50:02.132Z,16.9
2018-05-14T04:55:01.889Z,16.8
2018-05-14T05:00:01.445Z,16.8
2018-05-14T05:05:02.423Z,16.6
2018-05-14T05:10:01.744Z,16.5
2018-05-14T05:15:02.175Z,16.3
2018-05-14T05:20:01.323Z,16.1
2018-05-14T05:25:01.872Z,16
2018-05-14T05:30:02.105Z,15.8
2018-05-14T05:35:01.268Z,15.8
2018-05-14T05:40:02.592Z,15.8
2018-05-14T05:45:01.759Z,15.9
2018-05-14T05:50:01.917Z,16
2018-05-14T05:55:02.304Z,16
2018-05-14T06:00:01.481Z,16.3
2018-05-14T06:05:01.402Z,16.5
2018-05-14T06:10:01.426Z,16.7
2018-05-14T06:15:01.987Z,16.9
2018-05-14T06:20:01.747Z,17.2
2018-05-14T06:25:01.969Z,17.5
2018-05-14T06:30:01.879Z,17.7
2018-05-14T06:35:01.518Z,17.9
2018-05-14T06:40:01.469Z,18.5
2018-05-14T06:45:01.877Z,18.6
2018-05-14T06:50:02.092Z,18.9
2018-05-14T06:55:01.334Z,19.2
2018-05-14T07:00:02.278Z,19.4
2018-05-14T07:05:01.692Z,19.5
2018-05-14T07:10:01.609Z,20
2018-05-14T07:15:01.567Z,20.3
2018-05-14T07:20:02.785Z,20.6
2018-05-14T07:25:01.270Z,20.8
2018-05-14T07:30:02.176Z,21.1
2018-05-14T07:35:02.076Z,21.3
2018-05-14T07:40:01.658Z,21.4
2018-05-14T07:45:01.721Z,21.8
2018-05-14T07:50:01.745Z,21.8
2018-05-14T07:55:01.805Z,22
2018-05-14T08:00:01.429Z,22.3
2018-05-14T08:05:01.449Z,22.3
2018-05-14T08:10:02.503Z,22.5
2018-05-14T08:15:01.688Z,22.8
2018-05-14T08:20:01.558Z,23.3
2018-05-14T08:25:01.282Z,23.3
2018-05-14T08:30:02.859Z,23.5
2018-05-14T08:35:01.393Z,23.8
2018-05-14T08:40:01.430Z,24.1
2018-05-14T08:45:01.923Z,24.2
2018-05-14T08:50:02.500Z,24.3
2018-05-14T08:55:01.695Z,24.4
2018-05-14T09:00:01.326Z,24.3
2018-05-14T09:05:01.772Z,24.6
2018-05-14T09:10:02.074Z,24.6
2018-05-14T09:15:01.217Z,24.7
2018-05-14T09:20:01.311Z,25.2
2018-05-14T09:25:01.891Z,24.8
2018-05-14T09:30:01.724Z,24.5
2018-05-14T09:35:01.606Z,24.1
2018-05-14T09:40:01.956Z,24.4
2018-05-14T09:45:01.703Z,24.7
2018-05-14T09:50:01.351Z,24.6
2018-05-14T09:55:01.467Z,24.7
2018-05-14T10:00:02.052Z,25
2018-05-14T10:05:01.283Z,24.7
2018-05-14T10:10:01.281Z,24.7
2018-05-14T10:15:01.534Z,24.3
2018-05-14T10:20:01.636Z,24.4
2018-05-14T10:25:01.727Z,24.4
2018-05-14T10:30:01.780Z,24.8
2018-05-14T10:35:01.708Z,25
2018-05-14T10:40:01.990Z,24.9
2018-05-14T10:45:02.354Z,24.9
2018-05-14T10:50:01.428Z,25.3
2018-05-14T10:55:01.867Z,25.9
2018-05-14T11:00:01.543Z,25.9
2018-05-14T11:05:01.839Z,25.7
2018-05-14T11:10:02.198Z,25.6
2018-05-14T11:15:01.767Z,25.6
2018-05-14T11:20:01.623Z,25.6
2018-05-14T11:25:01.779Z,26
2018-05-14T11:30:01.868Z,25.8
2018-05-14T11:35:01.753Z,25.8
2018-05-14T11:40:01.530Z,26.1
2018-05-14T11:45:01.949Z,26.1
2018-05-14T11:50:01.955Z,25.9
2018-05-14T11:55:01.184Z,26.1
2018-05-14T12:00:01.931Z,26.6
2018-05-14T12:05:01.891Z,26.7
2018-05-14T12:10:01.952Z,27.1
2018-05-14T12:15:01.678Z,26.8
2018-05-14T12:20:01.701Z,26.9
2018-05-14T12:25:02.173Z,26.9
2018-05-14T12:30:01.608Z,26.9
2018-05-14T12:35:02.341Z,26.9
2018-05-14T12:40:02.015Z,26.8
2018-05-14T12:45:01.636Z,27.1
2018-05-14T12:50:01.804Z,27.3
2018-05-14T12:55:02.032Z,27
2018-05-14T13:00:01.568Z,26.9
2018-05-14T13:05:01.566Z,27.6
2018-05-14T13:10:02.434Z,27.8
2018-05-14T13:15:02.023Z,28
2018-05-14T13:20:02.219Z,28.2
2018-05-14T13:25:01.338Z,28.6
2018-05-14T13:30:01.745Z,28.4
2018-05-14T13:35:01.943Z,28.6
2018-05-14T13:40:02.020Z,28.6
2018-05-14T13:45:01.640Z,28.3
2018-05-14T13:50:01.342Z,28.2
2018-05-14T13:55:01.783Z,27.7
2018-05-14T14:00:02.333Z,28.2
2018-05-14T14:05:01.926Z,28.1
2018-05-14T14:10:01.617Z,28.2
2018-05-14T14:15:01.998Z,28.4
2018-05-14T14:20:01.889Z,28.5
2018-05-14T14:25:01.426Z,28.5
2018-05-14T14:30:01.887Z,28.2
2018-05-14T14:35:01.965Z,27.8
2018-05-14T14:40:02.083Z,27.8
2018-05-14T14:45:01.839Z,27.8
2018-05-14T14:50:02.272Z,27.7
2018-05-14T14:55:01.363Z,27.7
2018-05-14T15:00:01.268Z,27.8
2018-05-14T15:05:02.405Z,27.7
2018-05-14T15:10:01.432Z,27.6
2018-05-14T15:15:02.080Z,27.7
2018-05-14T15:20:01.526Z,27.5
2018-05-14T15:25:01.903Z,27.4
2018-05-14T15:30:01.308Z,27.5
2018-05-14T15:35:01.829Z,27.5
2018-05-14T15:40:01.664Z,27.7
2018-05-14T15:45:02.046Z,27.2
2018-05-14T15:50:01.639Z,27.2
2018-05-14T15:55:02.261Z,27.2
2018-05-14T16:00:01.920Z,27.1
2018-05-14T16:05:01.598Z,27
2018-05-14T16:10:01.880Z,27
2018-05-14T16:15:01.519Z,26.8
2018-05-14T16:20:01.524Z,26.4
2018-05-14T16:25:01.296Z,26.3
2018-05-14T16:30:02.025Z,26.1
2018-05-14T16:35:01.864Z,25.3
2018-05-14T16:40:02.006Z,25.2
2018-05-14T16:45:02.114Z,25.1
2018-05-14T16:50:01.315Z,25.3
2018-05-14T16:55:01.659Z,25.1
2018-05-14T17:00:02.433Z,25.1
2018-05-14T17:05:01.574Z,24.9
2018-05-14T17:10:01.703Z,24.9
2018-05-14T17:15:01.880Z,24.9
2018-05-14T17:20:02.037Z,24.7
2018-05-14T17:25:02.046Z,24.4
2018-05-14T17:30:01.759Z,23.9
2018-05-14T17:35:01.550Z,23.4
2018-05-14T17:40:01.703Z,22.7
2018-05-14T17:45:01.685Z,18.9
2018-05-14T17:50:02.175Z,17.9
2018-05-14T17:55:01.844Z,17.1
2018-05-14T18:00:01.541Z,16.5
2018-05-14T18:05:01.789Z,16
2018-05-14T18:10:02.010Z,15.9
2018-05-14T18:15:01.274Z,16.5
2018-05-14T18:20:01.863Z,16.7
2018-05-14T18:25:02.893Z,16.7
2018-05-14T18:30:01.541Z,16.8
2018-05-14T18:35:01.503Z,16.9
2018-05-14T18:40:01.410Z,16.8
2018-05-14T18:45:02.028Z,16.8
2018-05-14T18:50:02.002Z,16.8
2018-05-14T18:55:01.841Z,16.7
2018-05-14T19:00:02.090Z,16.6
2018-05-14T19:05:01.605Z,16.5
2018-05-14T19:10:02.279Z,16.5
2018-05-14T19:15:01.756Z,16.4
2018-05-14T19:20:02.573Z,16.2
2018-05-14T19:25:01.477Z,16.1
2018-05-14T19:30:01.718Z,15.8
2018-05-14T19:35:03.471Z,15.6
2018-05-14T19:40:02.326Z,15.5
2018-05-14T19:45:02.014Z,15.3
2018-05-14T19:50:01.492Z,15.2
2018-05-14T19:55:02.186Z,15.1
2018-05-14T20:00:01.825Z,15
2018-05-14T20:05:01.918Z,15.1
2018-05-14T20:10:01.568Z,15.1
2018-05-14T20:15:01.961Z,15.1
2018-05-14T20:20:01.632Z,15
2018-05-14T20:25:01.817Z,14.9
2018-05-14T20:30:01.398Z,14.9
2018-05-14T20:35:01.302Z,14.8
2018-05-14T20:40:02.130Z,14.8
2018-05-14T20:45:01.499Z,14.9
2018-05-14T20:50:01.417Z,14.9
2018-05-14T20:55:01.532Z,14.7
2018-05-14T21:00:02.079Z,14.7
2018-05-14T21:05:01.337Z,14.6
2018-05-14T21:10:01.348Z,14.6
2018-05-14T21:15:01.769Z,14.5
2018-05-14T21:20:01.818Z,14.5
2018-05-14T21:25:01.325Z,14.5
2018-05-14T21:30:01.995Z,14.5
2018-05-14T21:35:01.804Z,14.5
2018-05-14T21:40:01.990Z,14.4
2018-05-14T21:45:02.381Z,14.4
2018-05-14T21:50:02.120Z,14.3
2018-05-14T21:55:01.310Z,14.4
2018-05-14T22:00:01.900Z,14.3
2018-05-14T22:05:02.439Z,14.3
2018-05-14T22:10:01.196Z,14.3
2018-05-14T22:15:02.166Z,14.3
2018-05-14T22:20:01.971Z,14.2
2018-05-14T22:25:01.904Z,14.2
2018-05-14T22:30:01.903Z,14.2
2018-05-14T22:35:01.983Z,14.2
2018-05-14T22:40:02.470Z,14.2
2018-05-14T22:45:01.922Z,14.1
2018-05-14T22:50:01.761Z,14
2018-05-14T22:55:01.290Z,13.9
2018-05-14T23:00:02.248Z,13.9
2018-05-14T23:05:02.029Z,13.8
2018-05-14T23:10:01.950Z,13.8
2018-05-14T23:15:01.272Z,13.7
2018-05-14T23:20:01.507Z,13.6
2018-05-14T23:25:02.047Z,13.4
2018-05-14T23:30:02.081Z,13.4
2018-05-14T23:35:01.788Z,13.4
2018-05-14T23:40:01.872Z,13.4
2018-05-14T23:45:01.292Z,13.4
2018-05-14T23:50:01.521Z,13.4
2018-05-14T23:55:01.594Z,13.3
